.
WxDataArchive / Data Records for 2010-12-01
2010-11-30 December 2010 2010-12-02

Data Records for Wednesday, 01 December 2010

Time	Temp	Chill	HIndex	Humid	Dewpt	 Wind 	HiWind	WindDir	Rain 	Barom 
-----	----	-----	------	-----	-----	------	------	-------	-----	----- 
00:00	30.1	30.1	30.1	75	23.2	2	5	248	0.00	29.818 
00:05	30.1	30.1	30.1	75	23.2	3	11	248	0.00	29.818 
00:10	30.1	30.1	30.1	76	23.5	2	5	248	0.00	29.818 
00:15	30.1	30.1	30.1	76	23.5	3	7	248	0.00	29.837 
00:20	30.1	30.1	30.1	76	23.5	2	5	270	0.00	29.837 
00:25	30.1	30.1	30.1	76	23.5	2	5	225	0.00	29.837 
00:30	30.1	30.1	30.1	76	23.5	1	4	248	0.00	29.835 
00:35	30.1	30.1	30.1	77	23.8	1	5	248	0.00	29.835 
00:40	30.0	30.0	30.0	76	23.4	3	11	248	0.00	29.835 
00:45	29.8	29.8	29.8	77	23.5	3	7	270	0.00	29.837 
00:50	29.5	29.5	29.5	77	23.2	3	5	270	0.00	29.837 
00:55	29.4	29.4	29.4	77	23.1	2	6	248	0.00	29.837 
01:00	29.3	29.3	29.3	78	23.3	3	10	270	0.00	29.834 
01:05	29.3	29.3	29.3	78	23.3	3	5	270	0.00	29.834 
01:10	29.1	24.7	29.1	78	23.1	4	10	248	0.00	29.834 
01:15	29.0	29.0	29.0	77	22.7	3	10	248	0.00	29.844 
01:20	28.7	28.7	28.7	77	22.4	3	6	270	0.00	29.844 
01:25	28.5	28.5	28.5	76	21.9	3	7	270	0.00	29.844 
01:30	28.5	28.5	28.5	76	21.9	3	7	248	0.00	29.840 
01:35	28.5	28.5	28.5	76	21.9	3	7	248	0.00	29.840 
01:40	28.4	23.9	28.4	75	21.5	4	12	270	0.00	29.840 
01:45	28.4	28.4	28.4	74	21.2	3	11	248	0.00	29.839 
01:50	28.5	28.5	28.5	74	21.3	2	6	248	0.00	29.839 
01:55	28.5	28.5	28.5	73	21.0	3	7	248	0.00	29.839 
02:00	28.5	28.5	28.5	73	21.0	3	7	248	0.00	29.842 
02:05	28.5	24.0	28.5	73	21.0	4	11	248	0.00	29.842 
02:10	28.4	28.4	28.4	74	21.2	3	9	270	0.00	29.842 
02:15	28.4	23.9	28.4	74	21.2	4	13	248	0.00	29.849 
02:20	28.2	23.7	28.2	74	21.0	4	9	270	0.00	29.849 
02:25	28.1	28.1	28.1	74	20.9	3	5	270	0.00	29.849 
02:30	27.9	27.9	27.9	73	20.4	3	10	248	0.00	29.857 
02:35	27.9	27.9	27.9	74	20.7	3	7	248	0.00	29.857 
02:40	27.9	27.9	27.9	73	20.4	3	11	248	0.00	29.857 
02:45	27.9	23.3	27.9	73	20.4	4	7	270	0.00	29.862 
02:50	27.8	23.2	27.8	73	20.3	4	11	248	0.00	29.862 
02:55	27.8	27.8	27.8	73	20.3	3	9	248	0.00	29.862 
03:00	27.8	23.2	27.8	73	20.3	4	11	248	0.00	29.866 
03:05	27.6	23.0	27.6	73	20.1	4	10	248	0.00	29.866 
03:10	27.6	21.9	27.6	73	20.1	5	13	248	0.00	29.866 
03:15	27.5	27.5	27.5	74	20.3	3	9	248	0.00	29.868 
03:20	27.5	27.5	27.5	75	20.6	3	9	248	0.00	29.868 
03:25	27.3	22.6	27.3	74	20.1	4	10	248	0.00	29.868 
03:30	27.2	22.5	27.2	74	20.0	4	8	248	0.00	29.870 
03:35	27.2	22.5	27.2	74	20.0	4	10	270	0.00	29.870 
03:40	27.2	27.2	27.2	75	20.3	2	5	270	0.00	29.870 
03:45	27.0	27.0	27.0	75	20.2	3	6	248	0.00	29.867 
03:50	27.0	27.0	27.0	75	20.2	3	6	270	0.00	29.867 
03:55	27.0	27.0	27.0	75	20.2	2	7	248	0.00	29.867 
04:00	27.0	27.0	27.0	75	20.2	3	9	248	0.00	29.866 
04:05	26.9	26.9	26.9	74	19.7	3	11	248	0.00	29.866 
04:10	26.9	26.9	26.9	74	19.7	3	10	248	0.00	29.866 
04:15	26.7	26.7	26.7	75	19.9	3	8	248	0.00	29.867 
04:20	26.7	22.0	26.7	74	19.5	4	9	270	0.00	29.867 
04:25	26.6	26.6	26.6	75	19.8	3	6	248	0.00	29.867 
04:30	26.6	26.6	26.6	75	19.8	3	8	248	0.00	29.864 
04:35	26.6	26.6	26.6	76	20.1	3	9	248	0.00	29.864 
04:40	26.4	26.4	26.4	76	19.9	3	7	248	0.00	29.864 
04:45	26.4	26.4	26.4	76	19.9	3	9	270	0.00	29.863 
04:50	26.4	26.4	26.4	77	20.2	3	6	248	0.00	29.863 
04:55	26.4	26.4	26.4	77	20.2	2	5	248	0.00	29.863 
05:00	26.3	26.3	26.3	78	20.4	2	6	248	0.00	29.861 
05:05	26.3	26.3	26.3	78	20.4	2	6	248	0.00	29.861 
05:10	26.3	26.3	26.3	78	20.4	3	10	248	0.00	29.861 
05:15	26.3	26.3	26.3	77	20.1	3	5	248	0.00	29.859 
05:20	26.3	26.3	26.3	77	20.1	3	5	248	0.00	29.859 
05:25	26.3	21.5	26.3	77	20.1	4	10	248	0.00	29.859 
05:30	26.3	26.3	26.3	76	19.8	3	9	248	0.00	29.860 
05:35	26.4	26.4	26.4	76	19.9	3	6	248	0.00	29.860 
05:40	26.3	26.3	26.3	76	19.8	3	8	248	0.00	29.860 
05:45	26.4	26.4	26.4	77	20.2	2	5	248	0.00	29.867 
05:50	26.3	26.3	26.3	77	20.1	3	6	270	0.00	29.867 
05:55	26.4	26.4	26.4	77	20.2	2	5	270	0.00	29.867 
06:00	26.3	26.3	26.3	77	20.1	3	7	248	0.00	29.868 
06:05	26.4	26.4	26.4	78	20.5	3	9	248	0.00	29.868 
06:10	26.4	26.4	26.4	78	20.5	3	5	248	0.00	29.868 
06:15	26.4	26.4	26.4	78	20.5	3	12	248	0.00	29.867 
06:20	26.4	26.4	26.4	78	20.5	3	7	248	0.00	29.867 
06:25	26.3	26.3	26.3	78	20.4	3	10	248	0.00	29.867 
06:30	26.3	26.3	26.3	78	20.4	3	6	248	0.00	29.871 
06:35	26.3	26.3	26.3	77	20.1	3	7	248	0.00	29.871 
06:40	26.4	26.4	26.4	77	20.2	2	5	248	0.00	29.871 
06:45	26.4	26.4	26.4	77	20.2	2	7	248	0.00	29.875 
06:50	26.3	26.3	26.3	76	19.8	3	7	248	0.00	29.875 
06:55	26.3	26.3	26.3	76	19.8	3	11	248	0.00	29.875 
07:00	26.3	21.5	26.3	75	19.5	4	10	248	0.00	29.885 
07:05	26.1	20.1	26.1	75	19.3	5	11	270	0.00	29.885 
07:10	26.1	26.1	26.1	75	19.3	3	7	248	0.00	29.885 
07:15	26.0	21.1	26.0	75	19.2	4	9	270	0.00	29.883 
07:20	26.0	26.0	26.0	76	19.5	2	5	248	0.00	29.883 
07:25	26.0	26.0	26.0	76	19.5	2	7	248	0.00	29.883 
07:30	26.0	26.0	26.0	76	19.5	3	7	248	0.00	29.887 
07:35	26.0	26.0	26.0	77	19.8	2	7	248	0.00	29.887 
07:40	26.0	26.0	26.0	77	19.8	3	6	225	0.00	29.887 
07:45	26.0	26.0	26.0	77	19.8	2	6	248	0.00	29.890 
07:50	25.8	25.8	25.8	77	19.6	3	9	248	0.00	29.890 
07:55	25.8	19.8	25.8	78	19.9	5	11	248	0.00	29.890 
08:00	25.6	25.6	25.6	78	19.7	3	10	270	0.00	29.897 
08:05	25.6	20.7	25.6	77	19.4	4	9	270	0.00	29.897 
08:10	25.4	25.4	25.4	77	19.2	3	10	270	0.00	29.897 
08:15	25.4	25.4	25.4	77	19.2	2	5	248	0.00	29.901 
08:20	25.4	25.4	25.4	78	19.5	3	7	248	0.00	29.901 
08:25	25.4	20.5	25.4	77	19.2	4	11	270	0.00	29.901 
08:30	25.4	25.4	25.4	77	19.2	3	7	248	0.00	29.904 
08:35	25.3	25.3	25.3	78	19.4	3	6	248	0.00	29.904 
08:40	25.3	25.3	25.3	79	19.7	2	4	248	0.00	29.904 
08:45	25.3	25.3	25.3	79	19.7	2	5	248	0.00	29.906 
08:50	25.3	25.3	25.3	80	20.0	2	9	248	0.00	29.906 
08:55	25.1	20.1	25.1	80	19.8	4	11	270	0.00	29.906 
09:00	25.0	25.0	25.0	80	19.7	3	10	248	0.00	29.907 
09:05	24.8	24.8	24.8	80	19.5	3	6	270	0.00	29.907 
09:10	24.8	24.8	24.8	81	19.8	3	7	248	0.00	29.907 
09:15	24.8	24.8	24.8	81	19.8	3	9	270	0.00	29.910 
09:20	24.8	24.8	24.8	82	20.1	3	7	248	0.00	29.910 
09:25	24.8	24.8	24.8	82	20.1	2	9	248	0.00	29.910 
09:30	25.0	25.0	25.0	82	20.3	3	10	248	0.00	29.910 
09:35	25.0	25.0	25.0	82	20.3	3	9	248	0.00	29.910 
09:40	25.0	25.0	25.0	81	20.0	3	7	248	0.00	29.910 
09:45	25.1	25.1	25.1	81	20.1	3	6	270	0.00	29.914 
09:50	25.3	25.3	25.3	81	20.3	3	9	225	0.00	29.914 
09:55	25.4	25.4	25.4	81	20.4	3	10	248	0.00	29.914 
10:00	25.4	25.4	25.4	81	20.4	3	10	248	0.00	29.919 
10:05	25.4	25.4	25.4	80	20.1	3	9	248	0.00	29.919 
10:10	25.6	25.6	25.6	81	20.6	2	5	248	0.00	29.919 
10:15	25.7	25.7	25.7	80	20.4	3	7	248	0.00	29.921 
10:20	25.8	25.8	25.8	80	20.5	3	7	270	0.00	29.921 
10:25	25.8	25.8	25.8	79	20.2	3	9	248	0.00	29.921 
10:30	25.8	25.8	25.8	79	20.2	3	7	270	0.00	29.921 
10:35	26.0	26.0	26.0	78	20.1	3	6	270	0.00	29.921 
10:40	26.0	21.1	26.0	77	19.8	4	7	270	0.00	29.921 
10:45	26.0	21.1	26.0	76	19.5	4	9	270	0.00	29.922 
10:50	26.0	21.1	26.0	75	19.2	4	12	270	0.00	29.922 
10:55	25.8	20.9	25.8	75	19.0	4	7	270	0.00	29.922 
11:00	26.0	26.0	26.0	75	19.2	3	9	270	0.00	29.923 
11:05	26.3	26.3	26.3	75	19.5	3	6	248	0.00	29.923 
11:10	26.4	26.4	26.4	74	19.3	3	10	248	0.00	29.923 
11:15	26.4	20.5	26.4	74	19.3	5	12	248	0.00	29.923 
11:20	26.6	26.6	26.6	73	19.1	3	11	248	0.00	29.923 
11:25	26.6	21.8	26.6	73	19.1	4	11	248	0.00	29.923 
11:30	26.4	21.6	26.4	74	19.3	4	9	248	0.00	29.922 
11:35	26.1	20.1	26.1	75	19.3	5	11	270	0.00	29.922 
11:40	25.8	25.8	25.8	75	19.0	3	9	248	0.00	29.922 
11:45	26.0	21.1	26.0	74	18.9	4	13	248	0.00	29.922 
11:50	25.8	20.9	25.8	73	18.4	4	10	270	0.00	29.922 
11:55	26.0	26.0	26.0	73	18.6	3	9	248	0.00	29.922 
12:00	26.0	26.0	26.0	73	18.6	3	9	248	0.00	29.921 
12:05	26.0	21.1	26.0	72	18.2	4	13	270	0.00	29.921 
12:10	26.1	26.1	26.1	72	18.3	3	7	270	0.00	29.921 
12:15	26.1	21.3	26.1	70	17.7	4	11	270	0.00	29.922 
12:20	26.4	21.6	26.4	69	17.6	4	12	248	0.00	29.922 
12:25	26.9	26.9	26.9	69	18.1	3	7	248	0.00	29.922 
12:30	26.9	26.9	26.9	69	18.1	3	7	270	0.00	29.921 
12:35	26.6	20.7	26.6	68	17.5	5	12	270	0.00	29.921 
12:40	26.3	21.5	26.3	69	17.5	4	7	248	0.00	29.921 
12:45	26.4	26.4	26.4	69	17.6	3	7	248	0.00	29.923 
12:50	26.4	26.4	26.4	69	17.6	3	10	248	0.00	29.923 
12:55	26.1	21.3	26.1	66	16.3	4	7	270	0.00	29.923 
13:00	26.3	21.5	26.3	66	16.5	4	11	248	0.00	29.923 
13:05	26.3	21.5	26.3	67	16.9	4	10	270	0.00	29.923 
13:10	26.3	21.5	26.3	68	17.2	4	7	270	0.00	29.923 
13:15	26.1	26.1	26.1	69	17.3	3	7	270	0.00	29.924 
13:20	26.0	26.0	26.0	71	17.9	3	7	248	0.00	29.924 
13:25	25.8	20.9	25.8	73	18.4	4	9	248	0.00	29.924 
13:30	25.6	25.6	25.6	75	18.8	2	6	248	0.00	29.924 
13:35	25.6	25.6	25.6	77	19.4	2	5	248	0.00	29.924 
13:40	25.4	20.5	25.4	76	18.9	4	11	248	0.00	29.924 
13:45	25.1	19.0	25.1	75	18.3	5	12	270	0.00	29.928 
13:50	24.8	18.6	24.8	75	18.0	5	12	270	0.00	29.928 
13:55	25.0	20.0	25.0	75	18.2	4	11	248	0.00	29.928 
14:00	25.0	20.0	25.0	74	17.9	4	8	248	0.00	29.928 
14:05	25.1	20.1	25.1	73	17.7	4	10	248	0.00	29.928 
14:10	25.3	20.3	25.3	74	18.2	4	9	248	0.00	29.928 
14:15	25.3	25.3	25.3	75	18.5	3	12	248	0.00	29.937 
14:20	25.1	20.1	25.1	75	18.3	4	11	248	0.00	29.937 
14:25	25.1	25.1	25.1	74	18.0	3	6	270	0.00	29.937 
14:30	25.3	25.3	25.3	74	18.2	3	7	248	0.00	29.940 
14:35	25.3	20.3	25.3	73	17.9	4	10	270	0.00	29.940 
14:40	25.3	25.3	25.3	72	17.6	3	8	248	0.00	29.940 
14:45	25.3	25.3	25.3	71	17.2	3	8	248	0.00	29.943 
14:50	25.3	25.3	25.3	72	17.6	3	6	248	0.00	29.943 
14:55	25.1	20.1	25.1	73	17.7	4	11	270	0.00	29.943 
15:00	25.0	25.0	25.0	74	17.9	3	6	248	0.00	29.948 
15:05	24.8	24.8	24.8	75	18.0	2	4	248	0.00	29.948 
15:10	24.7	24.7	24.7	76	18.2	3	10	270	0.00	29.948 
15:15	24.5	19.4	24.5	76	18.0	4	10	270	0.00	29.956 
15:20	24.4	19.3	24.4	77	18.2	4	9	270	0.00	29.956 
15:25	24.4	24.4	24.4	77	18.2	3	7	248	0.00	29.956 
15:30	24.4	24.4	24.4	78	18.5	3	6	248	0.00	29.966 
15:35	24.2	24.2	24.2	79	18.6	3	7	248	0.00	29.966 
15:40	24.2	19.1	24.2	79	18.6	4	9	270	0.00	29.966 
15:45	24.2	24.2	24.2	79	18.6	3	12	248	0.00	29.974 
15:50	24.1	19.0	24.1	78	18.3	4	9	270	0.00	29.974 
15:55	24.1	24.1	24.1	78	18.3	3	7	248	0.00	29.974 
16:00	24.2	24.2	24.2	78	18.3	3	11	270	0.00	29.980 
16:05	24.2	24.2	24.2	78	18.3	2	7	248	0.00	29.980 
16:10	24.1	24.1	24.1	78	18.3	3	11	248	0.00	29.980 
16:15	24.1	24.1	24.1	78	18.3	3	5	248	0.00	29.989 
16:20	24.1	24.1	24.1	78	18.3	2	6	248	0.00	29.989 
16:25	24.1	19.0	24.1	77	18.0	4	13	248	0.00	29.989 
16:30	24.1	24.1	24.1	77	18.0	3	6	270	0.00	29.994 
16:35	23.9	23.9	23.9	77	17.8	3	8	270	0.00	29.994 
16:40	23.8	18.6	23.8	78	18.0	4	9	248	0.00	29.994 
16:45	23.6	18.4	23.6	79	18.1	4	9	248	0.00	30.002 
16:50	23.5	18.3	23.5	79	18.0	4	9	248	0.00	30.002 
16:55	23.5	18.3	23.5	80	18.3	4	9	248	0.00	30.002 
17:00	23.3	18.0	23.3	81	18.3	4	10	248	0.00	30.008 
17:05	23.3	18.0	23.3	81	18.3	4	9	248	0.00	30.008 
17:10	23.3	23.3	23.3	81	18.3	2	4	248	0.00	30.008 
17:15	23.3	23.3	23.3	81	18.3	3	7	248	0.00	30.009 
17:20	23.3	23.3	23.3	81	18.3	3	7	248	0.00	30.009 
17:25	23.3	23.3	23.3	81	18.3	3	10	270	0.00	30.009 
17:30	23.3	23.3	23.3	80	18.1	3	10	248	0.00	30.018 
17:35	23.2	17.9	23.2	80	18.0	4	10	270	0.00	30.018 
17:40	23.2	17.9	23.2	80	18.0	4	10	225	0.00	30.018 
17:45	23.2	23.2	23.2	79	17.7	3	7	248	0.00	30.023 
17:50	23.2	23.2	23.2	79	17.7	2	6	292	0.00	30.023 
17:55	23.2	17.9	23.2	79	17.7	4	11	248	0.00	30.023 
18:00	23.2	23.2	23.2	79	17.7	2	9	248	0.00	30.027 
18:05	23.2	17.9	23.2	79	17.7	4	9	270	0.00	30.027 
18:10	23.2	17.9	23.2	79	17.7	4	10	248	0.00	30.027 
18:15	23.3	23.3	23.3	79	17.8	3	5	248	0.00	30.033 
18:20	23.3	18.0	23.3	79	17.8	4	10	248	0.00	30.033 
18:25	23.3	23.3	23.3	79	17.8	2	6	248	0.00	30.033 
18:30	23.3	23.3	23.3	79	17.8	2	5	292	0.00	30.035 
18:35	23.3	23.3	23.3	80	18.1	3	6	270	0.00	30.035 
18:40	23.3	23.3	23.3	80	18.1	3	10	248	0.00	30.035 
18:45	23.3	23.3	23.3	80	18.1	2	5	248	0.00	30.038 
18:50	23.3	23.3	23.3	80	18.1	3	9	270	0.00	30.038 
18:55	23.3	23.3	23.3	80	18.1	2	9	248	0.00	30.038 
19:00	23.3	23.3	23.3	80	18.1	3	5	248	0.00	30.040 
19:05	23.3	23.3	23.3	80	18.1	2	5	248	0.00	30.040 
19:10	23.3	23.3	23.3	80	18.1	2	5	248	0.00	30.040 
19:15	23.3	23.3	23.3	80	18.1	2	6	248	0.00	30.045 
19:20	23.5	23.5	23.5	81	18.5	2	6	248	0.00	30.045 
19:25	23.5	23.5	23.5	81	18.5	2	5	248	0.00	30.045 
19:30	23.5	23.5	23.5	81	18.5	3	7	248	0.00	30.049 
19:35	23.5	23.5	23.5	81	18.5	3	7	248	0.00	30.049 
19:40	23.5	23.5	23.5	81	18.5	3	7	248	0.00	30.049 
19:45	23.5	23.5	23.5	81	18.5	2	7	248	0.00	30.050 
19:50	23.6	23.6	23.6	81	18.6	2	5	248	0.00	30.050 
19:55	23.6	23.6	23.6	81	18.6	2	7	292	0.00	30.050 
20:00	23.6	23.6	23.6	81	18.6	1	6	248	0.00	30.053 
20:05	23.6	23.6	23.6	82	18.9	2	6	225	0.00	30.053 
20:10	23.6	23.6	23.6	82	18.9	1	3	225	0.00	30.053 
20:15	23.8	23.8	23.8	82	19.1	2	7	225	0.00	30.057 
20:20	23.8	23.8	23.8	82	19.1	2	7	248	0.00	30.057 
20:25	23.8	23.8	23.8	81	18.8	2	6	248	0.00	30.057 
20:30	23.8	23.8	23.8	81	18.8	2	5	248	0.00	30.058 
20:35	23.9	23.9	23.9	81	18.9	2	6	225	0.00	30.058 
20:40	23.9	23.9	23.9	81	18.9	2	6	270	0.00	30.058 
20:45	23.9	18.7	23.9	80	18.6	4	12	248	0.00	30.065 
20:50	23.9	18.7	23.9	78	18.1	4	11	248	0.00	30.065 
20:55	24.1	24.1	24.1	78	18.3	2	7	225	0.00	30.065 
21:00	24.1	24.1	24.1	78	18.3	3	9	248	0.00	30.067 
21:05	24.1	19.0	24.1	77	18.0	4	12	270	0.00	30.067 
21:10	24.1	19.0	24.1	77	18.0	4	11	270	0.00	30.067 
21:15	24.1	19.0	24.1	76	17.7	4	9	248	0.00	30.067 
21:20	24.1	24.1	24.1	77	18.0	2	4	248	0.00	30.067 
21:25	23.9	23.9	23.9	77	17.8	3	8	248	0.00	30.067 
21:30	23.9	23.9	23.9	77	17.8	3	7	248	0.00	30.070 
21:35	23.9	23.9	23.9	77	17.8	3	7	248	0.00	30.070 
21:40	23.9	23.9	23.9	77	17.8	3	6	248	0.00	30.070 
21:45	23.9	23.9	23.9	78	18.1	2	5	248	0.00	30.071 
21:50	23.8	23.8	23.8	78	18.0	2	9	248	0.00	30.071 
21:55	23.8	23.8	23.8	78	18.0	3	9	270	0.00	30.071 
22:00	23.8	23.8	23.8	77	17.7	2	7	292	0.00	30.072 
22:05	23.8	23.8	23.8	76	17.4	3	5	248	0.00	30.072 
22:10	23.8	23.8	23.8	76	17.4	2	7	225	0.00	30.072 
22:15	23.8	18.6	23.8	75	17.1	4	10	270	0.00	30.071 
22:20	23.8	23.8	23.8	74	16.7	2	6	248	0.00	30.071 
22:25	23.8	23.8	23.8	73	16.4	3	7	270	0.00	30.071 
22:30	23.8	17.4	23.8	72	16.1	5	14	270	0.00	30.075 
22:35	23.9	18.7	23.9	73	16.5	4	9	270	0.00	30.075 
22:40	23.8	18.6	23.8	74	16.7	4	10	248	0.00	30.075 
22:45	23.8	18.6	23.8	74	16.7	4	7	270	0.00	30.076 
22:50	23.8	23.8	23.8	74	16.7	3	6	248	0.00	30.076 
22:55	23.8	23.8	23.8	73	16.4	3	7	248	0.00	30.076 
23:00	23.8	18.6	23.8	73	16.4	4	11	270	0.00	30.080 
23:05	23.8	23.8	23.8	73	16.4	3	9	270	0.00	30.080 
23:10	23.8	18.6	23.8	73	16.4	4	10	248	0.00	30.080 
23:15	23.8	18.6	23.8	72	16.1	4	7	270	0.00	30.084 
23:20	23.8	18.6	23.8	72	16.1	4	11	248	0.00	30.084 
23:25	23.6	18.4	23.6	72	15.9	4	10	248	0.00	30.084 
23:30	23.6	23.6	23.6	72	15.9	3	9	248	0.00	30.091 
23:35	23.6	18.4	23.6	73	16.2	4	9	248	0.00	30.091 
23:40	23.6	23.6	23.6	73	16.2	3	6	248	0.00	30.091 
23:45	23.6	23.6	23.6	72	15.9	3	10	270	0.00	30.095 
23:50	23.6	23.6	23.6	73	16.2	3	7	248	0.00	30.095 
23:55	23.6	23.6	23.6	72	15.9	3	7	270	0.00	30.095 

CoCoRaHS
IN-AL-39
A2 Web Hosting
Creative Commons License
GoDaddy
search engine by freefind advanced

loaded 2018-11-19 10:28:49 • last modified 2010-11-18 10:43:29
Privacy PolicyDisclaimer
• wx.awcolley.com is powered by PmWiki v.2002016 •
• all content (unless otherwise noted) © 2018 A W Colley